Time;durP1;ratioP1;P1;durP2;ratioP2;P2;SDS_P1;SDS_P2;PMS_P1;PMS_P2;Temp;Humidity;BMP_temperature;BMP_pressure;BME280_temperature;BME280_humidity;BME280_pressure;Samples;Min_cycle;Max_cycle;Signal;HPM_P1;HPM_P2
2022/08/06 00:00:00;;;;;;;2.08;1.58;;;17.40;99.90;;;;;;5009757;28;20199;-83
2022/08/06 00:02:29;;;;;;;3.33;1.48;;;16.90;99.90;;;;;;5012421;28;20192;-83
2022/08/06 00:05:00;;;;;;;3.47;1.42;;;16.70;99.90;;;;;;5012592;28;20214;-83
2022/08/06 00:07:40;;;;;;;2.47;1.33;;;16.70;99.90;;;;;;5010639;28;20221;-83
2022/08/06 00:10:09;;;;;;;1.63;1.30;;;16.70;99.90;;;;;;5002686;28;20215;-83
2022/08/06 00:12:36;;;;;;;1.73;1.45;;;16.50;99.90;;;;;;5013707;28;20211;-82
2022/08/06 00:15:07;;;;;;;1.77;1.38;;;16.50;99.90;;;;;;5011745;28;20207;-82
2022/08/06 00:17:34;;;;;;;2.47;1.63;;;16.30;99.90;;;;;;5012650;28;20242;-82
2022/08/06 00:20:04;;;;;;;3.78;1.52;;;16.10;99.90;;;;;;5011936;28;20196;-82
2022/08/06 00:22:31;;;;;;;2.47;1.67;;;16.40;99.90;;;;;;5000534;28;20207;-82
2022/08/06 00:24:59;;;;;;;2.63;1.48;;;16.40;99.90;;;;;;5012017;28;20210;-83
2022/08/06 00:27:26;;;;;;;2.13;1.58;;;16.40;99.90;;;;;;5011933;28;20223;-83
2022/08/06 00:29:54;;;;;;;2.10;1.40;;;16.30;99.90;;;;;;5011318;28;20539;-82
2022/08/06 00:32:22;;;;;;;3.72;1.90;;;16.20;99.90;;;;;;5013719;28;20203;-82
2022/08/06 00:34:52;;;;;;;3.08;1.50;;;16.20;99.90;;;;;;5015889;28;20191;-82
2022/08/06 00:37:21;;;;;;;2.45;1.35;;;16.30;99.90;;;;;;5009459;28;20231;-82
2022/08/06 00:39:50;;;;;;;2.08;1.63;;;16.30;99.90;;;;;;5024070;28;20680;-82
2022/08/06 00:42:18;;;;;;;2.17;1.45;;;16.50;99.90;;;;;;5015524;28;20669;-82
2022/08/06 00:44:45;;;;;;;3.42;1.83;;;16.10;99.90;;;;;;5017974;28;20210;-84
2022/08/06 00:47:13;;;;;;;2.42;1.58;;;16.10;99.90;;;;;;5015245;28;20223;-83
2022/08/06 00:49:40;;;;;;;2.25;1.70;;;15.90;99.90;;;;;;5014111;28;20542;-83
2022/08/06 00:52:10;;;;;;;2.53;1.60;;;15.90;99.90;;;;;;5015801;28;20214;-83
2022/08/06 00:54:39;;;;;;;2.13;1.45;;;15.60;99.90;;;;;;5015207;28;20211;-83
2022/08/06 00:57:06;;;;;;;4.43;1.80;;;15.90;99.90;;;;;;5003886;28;20216;-83
2022/08/06 00:59:34;;;;;;;2.80;1.60;;;15.80;99.90;;;;;;5015898;28;20200;-82
2022/08/06 01:02:01;;;;;;;3.75;1.70;;;16.00;99.90;;;;;;5014094;28;21161;-82
2022/08/06 01:04:29;;;;;;;3.80;1.48;;;16.20;99.90;;;;;;5014484;28;20200;-82
2022/08/06 01:06:57;;;;;;;3.33;1.50;;;15.80;99.90;;;;;;5013402;28;20222;-82
2022/08/06 01:09:25;;;;;;;2.33;1.50;;;16.00;99.90;;;;;;5014889;28;20196;-82
2022/08/06 01:11:54;;;;;;;2.92;1.55;;;15.50;99.90;;;;;;5011753;28;20222;-82
2022/08/06 01:14:21;;;;;;;1.98;1.80;;;15.30;99.90;;;;;;5014830;28;20206;-82
2022/08/06 01:16:55;;;;;;;1.92;1.52;;;15.50;99.90;;;;;;5016043;28;20223;-82
2022/08/06 01:19:46;;;;;;;3.53;1.80;;;15.50;99.90;;;;;;5014111;28;20211;-82
2022/08/06 01:22:36;;;;;;;3.28;2.00;;;15.50;99.90;;;;;;5014838;28;20199;-82
2022/08/06 01:25:35;;;;;;;2.13;1.85;;;15.20;99.90;;;;;;5005836;28;20192;-82
2022/08/06 01:28:09;;;;;;;1.90;1.60;;;15.40;99.90;;;;;;5007032;28;20192;-82
2022/08/06 01:30:45;;;;;;;3.20;1.80;;;15.40;99.90;;;;;;5013810;28;20567;-82
2022/08/06 01:33:19;;;;;;;4.03;2.05;;;15.10;99.90;;;;;;5013434;28;20680;-82
2022/08/06 01:35:53;;;;;;;2.80;1.95;;;15.10;99.90;;;;;;5013564;28;20219;-82
2022/08/06 01:38:26;;;;;;;2.17;1.75;;;15.20;99.90;;;;;;5016446;28;20198;-82
2022/08/06 01:40:59;;;;;;;1.63;1.52;;;15.30;99.90;;;;;;5013564;28;20214;-82
2022/08/06 01:43:32;;;;;;;4.65;1.88;;;15.30;99.90;;;;;;5013506;28;20693;-82
2022/08/06 01:46:01;;;;;;;2.33;1.70;;;15.30;99.90;;;;;;5011927;28;20257;-83
2022/08/06 01:48:33;;;;;;;3.67;2.38;;;15.30;99.90;;;;;;5014340;28;20199;-83
2022/08/06 01:51:03;;;;;;;3.35;1.75;;;15.20;99.90;;;;;;5013525;28;20195;-83
2022/08/06 01:53:34;;;;;;;3.78;1.73;;;14.90;99.90;;;;;;5011874;28;20200;-83
2022/08/06 01:56:04;;;;;;;4.82;2.20;;;14.70;99.90;;;;;;5020344;28;20216;-83
2022/08/06 01:58:37;;;;;;;2.97;1.98;;;14.70;99.90;;;;;;5012472;28;20196;-83
2022/08/06 02:01:09;;;;;;;2.33;2.13;;;14.70;99.90;;;;;;5013549;28;20196;-82
2022/08/06 02:03:43;;;;;;;2.17;1.98;;;14.90;99.90;;;;;;5012976;28;20206;-83
2022/08/06 02:06:15;;;;;;;2.83;1.90;;;15.10;99.90;;;;;;5014357;28;20216;-83
2022/08/06 02:08:44;;;;;;;2.05;1.95;;;15.20;99.90;;;;;;5015196;28;20210;-82
2022/08/06 02:11:15;;;;;;;2.17;1.98;;;15.30;99.90;;;;;;5010224;28;20200;-83
2022/08/06 02:13:46;;;;;;;3.47;2.10;;;15.30;99.90;;;;;;5026274;28;20201;-83
2022/08/06 02:16:15;;;;;;;6.43;2.35;;;15.40;99.90;;;;;;5013979;28;20219;-83
2022/08/06 02:18:46;;;;;;;2.15;1.92;;;15.30;99.90;;;;;;5005750;28;20215;-82
2022/08/06 02:21:18;;;;;;;2.72;2.33;;;15.40;99.90;;;;;;5009127;28;20207;-82
2022/08/06 02:23:48;;;;;;;2.95;2.00;;;15.40;99.90;;;;;;5011906;28;20601;-82
2022/08/06 02:26:18;;;;;;;3.90;2.10;;;15.30;99.90;;;;;;5007489;28;20228;-82
2022/08/06 02:28:49;;;;;;;2.10;1.90;;;15.40;99.90;;;;;;5012494;28;20210;-82
2022/08/06 02:31:17;;;;;;;3.78;2.22;;;15.40;99.90;;;;;;5014333;28;20214;-82
2022/08/06 02:33:54;;;;;;;3.97;2.15;;;15.40;99.90;;;;;;5013377;28;20196;-82
2022/08/06 02:36:26;;;;;;;3.50;2.25;;;15.40;99.90;;;;;;5008058;28;20226;-82
2022/08/06 02:38:57;;;;;;;3.80;2.28;;;15.30;99.90;;;;;;5004065;28;20201;-82
2022/08/06 02:41:31;;;;;;;2.22;2.03;;;15.00;99.90;;;;;;5014646;28;20198;-82
2022/08/06 02:44:05;;;;;;;4.60;2.35;;;15.10;99.90;;;;;;5012979;28;20204;-82
2022/08/06 02:46:41;;;;;;;2.90;2.00;;;14.90;99.90;;;;;;5011226;28;20221;-82
2022/08/06 02:49:18;;;;;;;3.22;2.30;;;14.80;99.90;;;;;;5011715;28;20203;-82
2022/08/06 02:51:59;;;;;;;3.60;2.20;;;14.90;99.90;;;;;;5011481;28;20188;-82
2022/08/06 02:54:37;;;;;;;2.75;1.80;;;15.10;99.90;;;;;;5009339;28;20207;-82
2022/08/06 02:57:08;;;;;;;3.85;2.50;;;15.00;99.90;;;;;;5006486;28;20712;-82
2022/08/06 02:59:48;;;;;;;2.95;1.73;;;14.90;99.90;;;;;;5004068;28;20204;-82
2022/08/06 03:02:17;;;;;;;3.45;2.30;;;15.00;99.90;;;;;;5009924;28;20191;-82
2022/08/06 03:04:49;;;;;;;3.13;2.33;;;15.10;99.90;;;;;;5012425;28;20214;-82
2022/08/06 03:07:18;;;;;;;2.80;2.25;;;15.30;99.90;;;;;;5020769;28;20286;-82
2022/08/06 03:09:55;;;;;;;3.35;2.10;;;14.90;99.90;;;;;;5013853;28;20187;-82
2022/08/06 03:12:23;;;;;;;4.00;2.40;;;15.00;99.90;;;;;;5009837;28;20203;-82
2022/08/06 03:14:54;;;;;;;2.53;2.30;;;14.90;99.90;;;;;;5012089;28;20404;-82
2022/08/06 03:17:24;;;;;;;4.75;2.60;;;15.00;99.90;;;;;;5011655;28;20219;-82
2022/08/06 03:19:53;;;;;;;3.20;1.98;;;15.10;99.90;;;;;;5012835;28;20211;-82
2022/08/06 03:22:22;;;;;;;3.50;2.58;;;14.90;99.90;;;;;;5006913;28;20227;-82
2022/08/06 03:25:17;;;;;;;4.00;2.33;;;14.80;99.90;;;;;;5010302;28;20212;-82
2022/08/06 03:27:48;;;;;;;2.58;2.22;;;14.80;99.90;;;;;;5011765;28;20223;-82
2022/08/06 03:30:19;;;;;;;3.10;2.35;;;14.90;99.90;;;;;;5012846;28;20192;-82
2022/08/06 03:32:47;;;;;;;3.95;2.53;;;15.00;99.90;;;;;;5012670;28;20198;-82
2022/08/06 03:35:16;;;;;;;3.70;2.22;;;14.90;99.90;;;;;;5013208;28;20549;-82
2022/08/06 03:37:46;;;;;;;3.05;1.95;;;15.00;99.90;;;;;;5028005;28;20215;-82
2022/08/06 03:40:14;;;;;;;3.60;2.45;;;14.90;99.90;;;;;;5003744;28;20199;-82
2022/08/06 03:42:42;;;;;;;2.85;2.20;;;14.90;99.90;;;;;;5011375;28;20203;-82
2022/08/06 03:45:11;;;;;;;2.45;2.25;;;14.90;99.90;;;;;;5012020;28;20211;-82
2022/08/06 03:47:44;;;;;;;3.05;2.20;;;14.50;99.90;;;;;;5011838;28;20543;-82
2022/08/06 03:50:13;;;;;;;3.78;2.30;;;14.20;99.90;;;;;;5011983;28;20196;-82
2022/08/06 03:52:44;;;;;;;3.42;2.45;;;14.30;99.90;;;;;;5012143;28;20200;-82
2022/08/06 03:55:16;;;;;;;4.93;2.70;;;14.30;99.90;;;;;;5013393;28;20681;-82
2022/08/06 03:57:48;;;;;;;3.30;2.05;;;14.50;99.90;;;;;;5008455;28;20222;-82
2022/08/06 04:00:23;;;;;;;3.33;2.50;;;14.30;99.90;;;;;;5011383;28;20203;-82
2022/08/06 04:02:55;;;;;;;3.20;2.13;;;14.20;99.90;;;;;;5027899;28;20568;-82
2022/08/06 04:05:26;;;;;;;3.40;2.60;;;14.30;99.90;;;;;;5012484;28;20196;-82
2022/08/06 04:07:56;;;;;;;3.00;2.25;;;14.40;99.90;;;;;;5010090;28;20207;-82
2022/08/06 04:10:31;;;;;;;3.67;2.63;;;14.40;99.90;;;;;;5011956;28;20191;-82
2022/08/06 04:13:00;;;;;;;4.18;2.60;;;14.40;99.90;;;;;;5011806;28;20199;-82
2022/08/06 04:15:28;;;;;;;5.25;2.60;;;14.50;99.90;;;;;;5009437;28;20200;-81
2022/08/06 04:18:04;;;;;;;4.32;2.67;;;14.50;99.90;;;;;;5017812;28;20573;-82
2022/08/06 04:20:37;;;;;;;4.20;2.50;;;14.50;99.90;;;;;;5016701;28;20202;-81
2022/08/06 04:23:05;;;;;;;3.40;2.65;;;14.30;99.90;;;;;;5016328;28;20199;-81
2022/08/06 04:25:39;;;;;;;2.92;2.47;;;14.50;99.90;;;;;;5015994;28;20208;-81
2022/08/06 04:28:07;;;;;;;4.78;3.15;;;14.50;99.90;;;;;;5016129;28;20206;-81
2022/08/06 04:30:39;;;;;;;4.18;2.95;;;14.20;99.90;;;;;;5020665;28;20210;-81
2022/08/06 04:33:11;;;;;;;2.70;2.50;;;14.10;99.90;;;;;;5013307;28;20184;-81
2022/08/06 04:35:41;;;;;;;4.38;2.70;;;14.20;99.90;;;;;;5014342;28;20713;-81
2022/08/06 04:38:09;;;;;;;4.15;2.60;;;14.30;99.90;;;;;;5007264;28;20226;-81
2022/08/06 04:40:37;;;;;;;5.63;2.67;;;14.50;99.90;;;;;;5026892;28;20207;-81
2022/08/06 04:43:06;;;;;;;3.35;3.03;;;14.50;99.90;;;;;;5013805;28;20204;-81
2022/08/06 04:45:35;;;;;;;3.85;2.70;;;14.70;99.90;;;;;;5012524;28;20227;-81
2022/08/06 04:48:06;;;;;;;5.63;2.80;;;14.50;99.90;;;;;;5011751;28;20650;-81
2022/08/06 04:50:36;;;;;;;4.50;2.70;;;14.30;99.90;;;;;;5005360;28;20203;-81
2022/08/06 04:53:08;;;;;;;5.43;3.20;;;14.30;99.90;;;;;;5014265;28;20204;-81
2022/08/06 04:55:36;;;;;;;4.45;3.50;;;14.30;99.90;;;;;;5012589;28;20227;-81
2022/08/06 04:58:05;;;;;;;3.42;3.13;;;14.30;99.90;;;;;;5014270;28;20235;-81
2022/08/06 05:00:33;;;;;;;6.55;3.25;;;14.40;99.90;;;;;;5014049;28;20207;-81
2022/08/06 05:03:01;;;;;;;5.38;3.13;;;14.60;99.90;;;;;;5006507;28;20534;-81
2022/08/06 05:05:31;;;;;;;3.50;2.90;;;14.60;99.90;;;;;;5013820;28;20874;-81
2022/08/06 05:08:03;;;;;;;3.30;3.00;;;14.50;99.90;;;;;;5006531;28;20204;-81
2022/08/06 05:10:35;;;;;;;6.30;3.28;;;14.70;99.90;;;;;;5011516;28;20204;-81
2022/08/06 05:13:03;;;;;;;2.97;2.33;;;14.80;99.90;;;;;;5014986;28;20677;-80
2022/08/06 05:15:35;;;;;;;5.22;3.33;;;15.80;99.90;;;;;;5013932;28;20292;-79
2022/08/06 05:18:08;;;;;;;4.78;3.28;;;15.90;99.90;;;;;;5009420;28;20208;-79
2022/08/06 05:20:39;;;;;;;3.72;2.88;;;15.40;99.90;;;;;;5004799;28;20204;-80
2022/08/06 05:23:13;;;;;;;3.95;3.53;;;16.00;99.90;;;;;;5014884;28;20219;-80
2022/08/06 05:25:58;;;;;;;3.80;3.25;;;16.00;99.90;;;;;;5016421;28;20693;-81
2022/08/06 05:28:32;;;;;;;5.22;2.92;;;15.90;99.90;;;;;;5009303;28;20187;-79
2022/08/06 05:31:02;;;;;;;4.15;3.63;;;16.40;99.90;;;;;;5005393;28;20195;-80
2022/08/06 05:33:31;;;;;;;5.05;2.88;;;16.60;99.90;;;;;;5013226;28;20196;-80
2022/08/06 05:36:00;;;;;;;6.00;3.13;;;16.70;99.90;;;;;;5012709;28;20228;-80
2022/08/06 05:38:33;;;;;;;5.03;3.22;;;17.20;99.90;;;;;;5026436;28;20226;-80
2022/08/06 05:41:06;;;;;;;3.75;3.45;;;17.00;99.90;;;;;;5009008;28;20200;-79
2022/08/06 05:43:37;;;;;;;5.07;3.70;;;16.80;99.90;;;;;;5020262;28;20211;-79
2022/08/06 05:46:09;;;;;;;3.65;2.65;;;16.10;99.90;;;;;;5025100;28;20538;-79
2022/08/06 05:48:41;;;;;;;3.35;2.80;;;16.90;99.90;;;;;;5014382;28;20662;-79
2022/08/06 05:51:13;;;;;;;6.85;3.50;;;17.20;99.90;;;;;;5010775;28;20203;-79
2022/08/06 05:53:54;;;;;;;4.07;2.33;;;17.70;99.90;;;;;;5012689;28;20199;-80
2022/08/06 05:56:26;;;;;;;6.13;3.03;;;18.10;99.90;;;;;;5027781;28;20226;-80
2022/08/06 05:59:00;;;;;;;4.50;3.33;;;18.20;99.90;;;;;;5012483;28;20208;-80
2022/08/06 06:01:31;;;;;;;3.70;3.05;;;17.80;99.90;;;;;;5013433;28;20206;-80
2022/08/06 06:04:00;;;;;;;3.63;2.20;;;17.30;99.90;;;;;;5005473;28;20657;-80
2022/08/06 06:06:32;;;;;;;5.70;2.65;;;17.60;99.90;;;;;;5016149;28;20223;-80
2022/08/06 06:09:01;;;;;;;5.93;2.67;;;18.00;99.90;;;;;;5001280;28;20194;-80
2022/08/06 06:11:30;;;;;;;3.67;2.58;;;18.70;99.90;;;;;;5014289;28;20202;-79
2022/08/06 06:13:57;;;;;;;4.55;1.95;;;18.30;99.90;;;;;;5014521;28;20187;-79
2022/08/06 06:16:29;;;;;;;3.58;2.20;;;18.50;99.90;;;;;;5010782;28;20224;-80
2022/08/06 06:19:20;;;;;;;4.50;2.10;;;18.90;99.90;;;;;;5013656;28;20203;-81
2022/08/06 06:21:57;;;;;;;2.80;1.98;;;19.10;99.90;;;;;;5023770;28;20214;-81
2022/08/06 06:24:32;;;;;;;4.95;2.63;;;19.10;99.40;;;;;;5030685;28;20206;-83
2022/08/06 06:27:06;;;;;;;4.03;2.17;;;19.00;99.90;;;;;;5011364;28;20227;-83
2022/08/06 06:29:48;;;;;;;2.30;1.90;;;19.20;99.90;;;;;;5009499;28;20194;-82
2022/08/06 06:32:22;;;;;;;3.42;1.90;;;19.20;99.10;;;;;;5010289;28;20215;-82
2022/08/06 06:35:00;;;;;;;2.95;1.73;;;19.20;99.10;;;;;;5012822;28;20199;-82
2022/08/06 06:37:36;;;;;;;4.10;1.77;;;19.20;98.30;;;;;;5011593;28;20238;-82
2022/08/06 06:40:16;;;;;;;7.40;2.25;;;19.10;99.50;;;;;;5016598;28;20216;-83
2022/08/06 06:42:49;;;;;;;3.88;1.50;;;19.30;99.00;;;;;;5017763;28;20620;-83
2022/08/06 06:45:23;;;;;;;2.65;1.60;;;19.00;99.20;;;;;;5010942;28;20200;-82
2022/08/06 06:47:56;;;;;;;2.42;1.30;;;19.20;99.10;;;;;;5010394;28;20491;-81
2022/08/06 06:50:28;;;;;;;1.55;1.27;;;19.20;98.50;;;;;;5010935;28;20203;-82
2022/08/06 06:52:57;;;;;;;19.55;6.70;;;19.30;99.30;;;;;;5011726;28;20215;-81
2022/08/06 06:55:32;;;;;;;22.95;7.18;;;19.40;98.20;;;;;;5018529;28;20558;-79
2022/08/06 06:58:06;;;;;;;10.48;3.50;;;19.40;98.30;;;;;;5012229;28;20192;-80
2022/08/06 07:00:50;;;;;;;3.40;1.58;;;19.40;98.20;;;;;;5010791;28;20226;-81
2022/08/06 07:03:20;;;;;;;2.35;1.00;;;19.40;97.80;;;;;;5006469;28;20202;-81
2022/08/06 07:05:50;;;;;;;2.83;1.17;;;19.30;97.70;;;;;;5018408;28;20242;-80
2022/08/06 07:08:40;;;;;;;3.58;1.40;;;19.20;97.60;;;;;;5100835;27;20579;-79
2022/08/06 07:11:09;;;;;;;1.98;0.90;;;18.90;98.30;;;;;;5083503;28;20192;-79
2022/08/06 07:13:38;;;;;;;2.00;1.00;;;18.90;99.30;;;;;;5090683;28;20201;-79
2022/08/06 07:16:07;;;;;;;5.18;1.23;;;19.20;98.10;;;;;;5091834;28;20217;-79
2022/08/06 07:18:35;;;;;;;1.65;0.90;;;18.90;98.40;;;;;;5091635;28;20654;-79
2022/08/06 07:21:04;;;;;;;2.78;1.05;;;19.30;97.80;;;;;;5091710;28;20200;-79
2022/08/06 07:23:33;;;;;;;1.27;0.85;;;19.40;97.90;;;;;;5090328;28;20205;-79
2022/08/06 07:26:02;;;;;;;2.65;1.00;;;19.10;98.60;;;;;;5086007;28;20239;-79
2022/08/06 07:28:31;;;;;;;2.90;1.00;;;19.40;97.90;;;;;;5090411;28;20209;-79
2022/08/06 07:31:00;;;;;;;2.83;0.70;;;19.40;97.80;;;;;;5091430;28;20206;-79
2022/08/06 07:33:29;;;;;;;1.08;0.88;;;19.40;97.10;;;;;;5092003;28;20201;-79
2022/08/06 07:35:59;;;;;;;1.42;1.05;;;19.30;96.70;;;;;;5090794;28;20216;-78
2022/08/06 07:38:29;;;;;;;3.42;0.73;;;19.40;97.20;;;;;;5090824;28;20193;-79
2022/08/06 07:41:03;;;;;;;2.45;0.77;;;19.40;97.30;;;;;;5088646;28;20196;-79
2022/08/06 07:43:34;;;;;;;0.90;0.80;;;19.80;96.50;;;;;;5090625;28;20699;-79
2022/08/06 07:46:05;;;;;;;3.50;0.80;;;19.90;96.20;;;;;;5083589;28;20217;-79
2022/08/06 07:48:36;;;;;;;1.80;0.50;;;19.70;95.40;;;;;;5090918;28;20209;-78
2022/08/06 07:51:05;;;;;;;2.67;0.93;;;19.50;95.30;;;;;;5082643;28;20207;-79
2022/08/06 07:53:35;;;;;;;1.52;0.60;;;19.80;95.60;;;;;;5089650;28;20205;-79
2022/08/06 07:56:05;;;;;;;1.60;0.50;;;19.80;94.90;;;;;;5085488;28;20229;-79
2022/08/06 07:58:34;;;;;;;1.95;1.30;;;20.00;94.90;;;;;;5073283;28;20197;-79
2022/08/06 08:01:02;;;;;;;2.53;0.70;;;19.90;93.40;;;;;;5090455;28;20205;-79
2022/08/06 08:06:21;;;;;;;0.52;0.43;;;19.70;92.40;;;;;;5085695;28;20209;-79
2022/08/06 08:08:51;;;;;;;0.98;0.68;;;19.70;92.10;;;;;;5092004;28;20208;-79
2022/08/06 08:11:23;;;;;;;2.47;0.60;;;20.00;92.20;;;;;;5085552;28;20213;-79
2022/08/06 08:13:52;;;;;;;2.72;0.52;;;19.90;92.20;;;;;;5089238;28;20201;-79
2022/08/06 08:16:21;;;;;;;1.02;0.40;;;19.60;92.40;;;;;;5082928;28;20217;-79
2022/08/06 08:18:49;;;;;;;0.70;0.70;;;19.70;93.10;;;;;;5069463;28;20216;-79
2022/08/06 08:21:17;;;;;;;0.52;0.40;;;19.90;93.60;;;;;;5076319;28;20702;-79
2022/08/06 08:23:46;;;;;;;0.77;0.50;;;20.20;92.30;;;;;;5074672;28;20197;-79
2022/08/06 08:26:14;;;;;;;1.30;0.47;;;20.40;91.30;;;;;;5075679;28;20229;-79
2022/08/06 08:28:43;;;;;;;0.85;0.60;;;20.20;91.20;;;;;;5075147;28;20224;-79
2022/08/06 08:31:13;;;;;;;1.00;0.60;;;20.20;91.30;;;;;;5076703;28;20193;-79
2022/08/06 08:33:41;;;;;;;2.35;0.70;;;20.20;91.40;;;;;;5075648;28;20193;-79
2022/08/06 08:36:09;;;;;;;2.25;0.43;;;20.00;92.00;;;;;;5079433;28;20220;-78
2022/08/06 08:38:37;;;;;;;0.85;0.60;;;20.10;91.80;;;;;;5067883;28;20210;-79
2022/08/06 08:41:20;;;;;;;0.80;0.50;;;20.30;91.70;;;;;;5082547;28;20209;-79
2022/08/06 08:43:56;;;;;;;0.68;0.50;;;20.20;91.30;;;;;;5082809;28;20193;-79
2022/08/06 08:46:25;;;;;;;2.03;0.93;;;20.10;91.90;;;;;;5082572;28;20224;-79
2022/08/06 08:48:54;;;;;;;1.17;0.73;;;20.40;91.00;;;;;;5084113;28;20209;-79
2022/08/06 08:51:23;;;;;;;2.17;0.77;;;20.40;90.80;;;;;;5081136;28;20280;-79
2022/08/06 08:54:00;;;;;;;2.08;0.80;;;20.50;90.50;;;;;;5073835;28;20568;-79
2022/08/06 08:56:27;;;;;;;0.88;0.52;;;20.60;90.00;;;;;;5083309;28;20706;-79
2022/08/06 08:58:56;;;;;;;3.08;0.95;;;20.60;89.80;;;;;;5081683;28;20190;-79
2022/08/06 09:01:24;;;;;;;2.22;0.55;;;20.30;89.80;;;;;;5082453;28;20194;-79
2022/08/06 09:03:52;;;;;;;0.47;0.40;;;20.00;90.10;;;;;;5081917;28;20197;-79
2022/08/06 09:06:21;;;;;;;1.48;0.55;;;20.00;88.80;;;;;;5081834;28;20296;-79
2022/08/06 09:08:49;;;;;;;0.82;0.30;;;20.20;86.30;;;;;;5081423;28;20228;-79
2022/08/06 09:11:17;;;;;;;0.93;0.50;;;20.20;83.90;;;;;;5081958;28;20208;-79
2022/08/06 09:13:45;;;;;;;0.82;0.55;;;20.30;83.50;;;;;;5086035;28;20202;-79
2022/08/06 09:16:14;;;;;;;2.70;0.40;;;20.30;84.10;;;;;;5082167;28;20236;-78
2022/08/06 09:18:41;;;;;;;1.02;0.52;;;20.10;84.20;;;;;;5082394;28;20236;-79
2022/08/06 09:21:09;;;;;;;1.02;0.80;;;20.30;85.10;;;;;;5082920;28;20194;-79
2022/08/06 09:23:39;;;;;;;1.15;0.30;;;20.10;84.50;;;;;;5080962;28;20567;-79
2022/08/06 09:26:07;;;;;;;0.73;0.40;;;19.80;84.40;;;;;;5081948;28;20217;-79
2022/08/06 09:28:36;;;;;;;1.75;0.68;;;20.30;85.40;;;;;;5081227;28;20221;-78
2022/08/06 09:31:06;;;;;;;1.90;0.60;;;20.50;82.00;;;;;;5081016;28;20198;-78
2022/08/06 09:33:38;;;;;;;1.52;0.63;;;20.50;79.60;;;;;;5081837;28;20193;-79
2022/08/06 09:36:07;;;;;;;1.67;0.45;;;20.60;78.40;;;;;;5077638;28;20304;-79
2022/08/06 09:38:47;;;;;;;0.88;0.47;;;20.70;77.70;;;;;;5080708;28;20194;-79
2022/08/06 09:41:16;;;;;;;1.65;0.50;;;20.50;76.60;;;;;;5078520;28;20194;-79
2022/08/06 09:43:45;;;;;;;2.78;0.50;;;20.40;76.00;;;;;;5079891;28;20202;-79
2022/08/06 09:46:15;;;;;;;1.65;0.57;;;20.50;78.30;;;;;;5080651;28;20262;-79
2022/08/06 09:48:59;;;;;;;1.45;0.50;;;20.80;77.20;;;;;;5080413;28;20221;-79
2022/08/06 09:51:28;;;;;;;0.38;0.30;;;20.90;75.90;;;;;;5080502;28;20198;-79
2022/08/06 09:53:57;;;;;;;0.75;0.50;;;21.00;75.70;;;;;;5078531;28;20198;-79
2022/08/06 09:56:25;;;;;;;0.75;0.45;;;21.00;73.80;;;;;;5080502;28;20229;-79
2022/08/06 09:58:58;;;;;;;1.33;0.50;;;20.70;73.20;;;;;;5081009;28;20196;-79
2022/08/06 10:01:27;;;;;;;0.93;0.40;;;20.70;76.10;;;;;;5079625;28;20224;-79
2022/08/06 10:03:56;;;;;;;1.33;0.60;;;20.80;74.90;;;;;;5081168;28;20194;-79
2022/08/06 10:06:25;;;;;;;0.68;0.40;;;21.00;74.50;;;;;;5079989;28;20221;-79
2022/08/06 10:09:08;;;;;;;0.95;0.30;;;21.20;72.10;;;;;;5078382;28;20221;-79
2022/08/06 10:11:38;;;;;;;1.45;0.50;;;21.20;70.10;;;;;;5078957;28;20205;-78
2022/08/06 10:14:06;;;;;;;0.63;0.32;;;21.30;69.60;;;;;;5081669;28;20194;-79
2022/08/06 10:16:33;;;;;;;1.17;0.43;;;21.40;70.00;;;;;;5079614;28;20587;-79
2022/08/06 10:19:05;;;;;;;0.60;0.30;;;21.20;68.40;;;;;;5072456;28;20204;-79
2022/08/06 10:21:35;;;;;;;1.20;0.30;;;21.00;68.60;;;;;;5078843;28;20193;-79
2022/08/06 10:24:04;;;;;;;0.85;0.30;;;21.00;69.30;;;;;;5078672;28;20193;-79
2022/08/06 10:26:34;;;;;;;0.45;0.30;;;21.10;70.30;;;;;;5079553;28;20221;-79
2022/08/06 10:29:04;;;;;;;1.92;0.60;;;21.10;70.50;;;;;;5080313;28;20226;-79
2022/08/06 10:31:33;;;;;;;1.05;0.60;;;21.10;71.10;;;;;;5078661;28;20198;-79
2022/08/06 10:34:05;;;;;;;0.70;0.50;;;21.30;71.80;;;;;;5078216;28;20198;-79
2022/08/06 10:36:40;;;;;;;1.83;0.50;;;21.40;70.40;;;;;;5078363;28;20217;-79
2022/08/06 10:39:08;;;;;;;0.63;0.40;;;21.10;71.10;;;;;;5079926;28;20204;-79
2022/08/06 10:41:38;;;;;;;1.33;0.50;;;21.40;69.20;;;;;;5078628;28;20655;-79
2022/08/06 10:44:07;;;;;;;0.32;0.20;;;21.70;68.10;;;;;;5079546;28;20220;-79
2022/08/06 10:46:35;;;;;;;1.98;0.50;;;21.80;67.80;;;;;;5079449;28;20694;-79
2022/08/06 10:49:03;;;;;;;1.02;0.30;;;22.00;65.40;;;;;;5074898;28;20222;-79
2022/08/06 10:51:31;;;;;;;0.57;0.43;;;21.90;63.20;;;;;;5063904;28;20202;-79
2022/08/06 10:54:00;;;;;;;1.15;0.60;;;21.60;65.20;;;;;;5078205;28;20198;-79
2022/08/06 10:56:30;;;;;;;1.48;0.40;;;21.70;65.10;;;;;;5080172;28;20225;-79
2022/08/06 10:58:59;;;;;;;1.02;0.80;;;22.00;66.10;;;;;;5077970;28;20189;-81
2022/08/06 11:01:33;;;;;;;1.00;0.40;;;22.00;64.00;;;;;;5066633;28;20194;-80
2022/08/06 11:04:13;;;;;;;1.55;0.65;;;22.00;65.40;;;;;;5072238;28;20205;-82
2022/08/06 11:07:04;;;;;;;1.67;0.60;;;22.00;61.90;;;;;;5076087;28;20229;-82
2022/08/06 11:10:03;;;;;;;0.70;0.45;;;22.30;63.40;;;;;;5074942;28;20213;-81
2022/08/06 11:12:50;;;;;;;0.77;0.60;;;22.50;58.90;;;;;;5079161;28;20202;-79
2022/08/06 11:15:18;;;;;;;0.30;0.30;;;22.50;57.80;;;;;;5073077;28;20202;-80
2022/08/06 11:17:49;;;;;;;1.23;0.40;;;22.70;58.60;;;;;;5073836;28;20202;-80
2022/08/06 11:20:39;;;;;;;1.20;0.70;;;22.60;60.10;;;;;;5072408;28;20190;-80
2022/08/06 11:23:33;;;;;;;0.90;0.38;;;22.70;58.70;;;;;;5083316;28;20679;-81
2022/08/06 11:26:04;;;;;;;0.32;0.32;;;22.50;60.50;;;;;;5075043;28;20213;-84
2022/08/06 11:29:01;;;;;;;1.27;0.20;;;22.50;58.90;;;;;;5078513;28;20217;-81
2022/08/06 11:31:50;;;;;;;1.40;0.50;;;22.50;59.60;;;;;;5079954;28;20194;-81
2022/08/06 11:34:20;;;;;;;1.00;0.47;;;22.70;56.70;;;;;;5080678;28;20201;-81
2022/08/06 11:36:59;;;;;;;1.15;0.40;;;22.40;56.00;;;;;;5083262;28;20231;-81
2022/08/06 11:39:27;;;;;;;1.13;0.30;;;22.40;54.70;;;;;;5081945;28;20206;-82
2022/08/06 11:41:59;;;;;;;1.42;0.30;;;22.40;55.90;;;;;;5076207;28;20209;-81
2022/08/06 11:44:30;;;;;;;0.63;0.38;;;22.20;56.80;;;;;;5083124;28;20193;-81
2022/08/06 11:47:09;;;;;;;0.57;0.40;;;22.00;57.20;;;;;;5080033;28;20232;-81
2022/08/06 11:49:39;;;;;;;2.13;0.40;;;22.00;57.10;;;;;;5077477;28;20207;-82
2022/08/06 11:52:07;;;;;;;0.70;0.30;;;22.10;58.50;;;;;;5066660;28;20209;-82
2022/08/06 11:54:37;;;;;;;1.45;0.30;;;22.50;56.60;;;;;;5076010;28;20208;-82
2022/08/06 11:57:23;;;;;;;1.02;0.30;;;22.40;56.40;;;;;;5071080;28;20217;-81
2022/08/06 12:00:24;;;;;;;0.57;0.30;;;22.70;56.50;;;;;;5081276;28;20190;-80
2022/08/06 12:02:58;;;;;;;0.40;0.40;;;22.90;56.00;;;;;;5057931;28;20201;-82
2022/08/06 12:05:40;;;;;;;1.52;0.45;;;22.90;54.90;;;;;;5062256;28;20667;-83
2022/08/06 12:08:23;;;;;;;0.32;0.30;;;22.80;53.40;;;;;;5084828;28;20217;-83
2022/08/06 12:11:36;;;;;;;1.10;0.30;;;22.40;53.30;;;;;;5078914;28;20579;-82
2022/08/06 12:14:06;;;;;;;1.45;0.50;;;22.50;54.80;;;;;;5078467;28;20197;-82
2022/08/06 12:16:36;;;;;;;0.50;0.35;;;22.40;54.50;;;;;;5078246;28;20684;-82
2022/08/06 12:19:13;;;;;;;0.47;0.30;;;22.20;54.60;;;;;;5078123;28;20215;-82
2022/08/06 12:21:44;;;;;;;0.80;0.50;;;22.60;54.10;;;;;;5078468;28;20197;-83
2022/08/06 12:24:12;;;;;;;1.05;0.40;;;22.80;50.90;;;;;;5078775;28;20198;-83
2022/08/06 12:26:40;;;;;;;1.10;0.45;;;23.20;52.00;;;;;;5077787;28;20222;-83
2022/08/06 12:29:09;;;;;;;1.48;0.20;;;23.40;50.70;;;;;;5076188;28;20220;-82
2022/08/06 12:31:39;;;;;;;1.67;0.22;;;23.60;51.10;;;;;;5077726;28;20194;-82
2022/08/06 12:34:08;;;;;;;0.40;0.35;;;23.50;49.80;;;;;;5077336;28;20210;-82
2022/08/06 12:36:37;;;;;;;0.30;0.30;;;23.80;49.80;;;;;;5078834;28;20213;-82
2022/08/06 12:39:08;;;;;;;0.40;0.20;;;23.20;49.20;;;;;;5077958;28;20208;-82
2022/08/06 12:41:39;;;;;;;1.50;0.40;;;23.40;50.30;;;;;;5067179;28;20197;-80
2022/08/06 12:44:06;;;;;;;2.80;0.70;;;23.40;51.20;;;;;;5075663;28;20545;-80
2022/08/06 12:46:35;;;;;;;1.00;0.50;;;23.10;52.50;;;;;;5069638;28;20225;-80
2022/08/06 12:49:03;;;;;;;0.82;0.50;;;22.90;53.60;;;;;;5079100;28;20570;-79
2022/08/06 12:51:31;;;;;;;0.47;0.40;;;22.90;54.70;;;;;;5076251;28;20714;-80
2022/08/06 12:54:00;;;;;;;0.70;0.52;;;22.90;56.70;;;;;;5062274;28;20660;-80
2022/08/06 12:56:31;;;;;;;0.95;0.47;;;22.70;54.60;;;;;;5070950;28;20237;-80
2022/08/06 12:59:02;;;;;;;0.38;0.30;;;22.50;53.50;;;;;;5073898;28;20694;-80
2022/08/06 13:01:31;;;;;;;1.17;0.45;;;22.40;54.00;;;;;;5073945;28;20698;-80
2022/08/06 13:04:02;;;;;;;1.05;0.30;;;23.00;53.20;;;;;;5074116;28;20566;-80
2022/08/06 13:06:33;;;;;;;0.50;0.40;;;23.60;53.90;;;;;;5073969;28;20240;-80
2022/08/06 13:09:01;;;;;;;1.83;1.35;;;24.00;52.90;;;;;;5069479;28;20218;-80
2022/08/06 13:11:44;;;;;;;1.40;0.93;;;24.50;52.00;;;;;;5070063;28;20202;-80